Terminal Aerodrome Forecast
Issued by NWS

Home | Current Version | Previous Version | Text Only | Print | Product List | Glossary On
Versions: 1 2 3 4 5 6 7 8 9 10 11 12 13 14 15
000
FTUS44 KTSA 222320
TAFRVS
TAF
KRVS 222320Z 2300/2324 VRB05KT P6SM -SHRA SCT050 OVC100
      TEMPO 2300/2304 5SM -TSRA BKN035CB
     FM230400 VRB03KT P6SM VCSH SCT035 BKN045
     FM231000 33004KT 3SM BR OVC012
     FM231600 34009KT P6SM BKN025
     FM231900 32010KT P6SM BKN050 PROB30 2319/2324 5SM -TSRA
      BKN035CB=

USA.gov is the U.S. government's official web portal to all federal, state and local government web resources and services.